sensor_id;sensor_type;location;lat;lon;timestamp;pressure;altitude;pressure_sealevel;temperature;humidity
46347;BME280;32057;47.830;19.046;2022-08-11T00:01:59;100748.56;;;16.68;66.69
46347;BME280;32057;47.830;19.046;2022-08-11T00:04:27;100745.03;;;16.59;67.37
46347;BME280;32057;47.830;19.046;2022-08-11T00:07:01;100744.16;;;16.63;66.89
46347;BME280;32057;47.830;19.046;2022-08-11T00:09:33;100750.31;;;16.62;66.72
46347;BME280;32057;47.830;19.046;2022-08-11T00:12:00;100745.91;;;16.61;67.05
46347;BME280;32057;47.830;19.046;2022-08-11T00:14:31;100743.25;;;16.47;67.78
46347;BME280;32057;47.830;19.046;2022-08-11T00:17:01;100738.00;;;16.50;67.36
46347;BME280;32057;47.830;19.046;2022-08-11T00:19:39;100738.91;;;16.60;67.24
46347;BME280;32057;47.830;19.046;2022-08-11T00:22:07;100739.78;;;16.56;67.29
46347;BME280;32057;47.830;19.046;2022-08-11T00:24:37;100743.25;;;16.55;67.26
46347;BME280;32057;47.830;19.046;2022-08-11T00:27:03;100741.50;;;16.44;68.20
46347;BME280;32057;47.830;19.046;2022-08-11T00:29:30;100742.38;;;16.49;67.57
46347;BME280;32057;47.830;19.046;2022-08-11T00:31:59;100737.94;;;16.24;68.69
46347;BME280;32057;47.830;19.046;2022-08-11T00:34:31;100737.03;;;16.19;69.06
46347;BME280;32057;47.830;19.046;2022-08-11T00:37:04;100730.88;;;16.10;69.11
46347;BME280;32057;47.830;19.046;2022-08-11T00:39:34;100736.06;;;15.98;69.98
46347;BME280;32057;47.830;19.046;2022-08-11T00:45:29;100729.81;;;15.75;71.54
46347;BME280;32057;47.830;19.046;2022-08-11T01:21:29;100727.00;;;15.44;73.59
46347;BME280;32057;47.830;19.046;2022-08-11T01:42:54;100716.59;;;15.62;72.00
46347;BME280;32057;47.830;19.046;2022-08-11T01:46:30;100716.56;;;15.59;71.99
46347;BME280;32057;47.830;19.046;2022-08-11T01:49:18;100714.75;;;15.49;72.49
46347;BME280;32057;47.830;19.046;2022-08-11T01:52:16;100721.66;;;15.34;73.05
46347;BME280;32057;47.830;19.046;2022-08-11T01:55:11;100721.53;;;15.16;74.35
46347;BME280;32057;47.830;19.046;2022-08-11T02:00:40;100719.69;;;15.07;75.01
46347;BME280;32057;47.830;19.046;2022-08-11T02:06:25;100721.19;;;14.76;76.85
46347;BME280;32057;47.830;19.046;2022-08-11T02:15:24;100720.06;;;14.52;79.94
46347;BME280;32057;47.830;19.046;2022-08-11T02:18:15;100708.66;;;14.49;79.96
46347;BME280;32057;47.830;19.046;2022-08-11T02:20:47;100706.09;;;14.52;80.10
46347;BME280;32057;47.830;19.046;2022-08-11T02:23:51;100713.88;;;14.47;79.95
46347;BME280;32057;47.830;19.046;2022-08-11T02:26:23;100714.81;;;14.52;79.86
46347;BME280;32057;47.830;19.046;2022-08-11T02:29:11;100703.47;;;14.53;79.84
46347;BME280;32057;47.830;19.046;2022-08-11T02:34:58;100698.97;;;14.39;81.46
46347;BME280;32057;47.830;19.046;2022-08-11T02:47:43;100692.84;;;14.38;80.19
46347;BME280;32057;47.830;19.046;2022-08-11T02:50:36;100689.41;;;14.45;79.92
46347;BME280;32057;47.830;19.046;2022-08-11T02:56:26;100697.31;;;14.51;79.99
46347;BME280;32057;47.830;19.046;2022-08-11T03:04:59;100685.97;;;14.49;80.05
46347;BME280;32057;47.830;19.046;2022-08-11T03:07:35;100688.59;;;14.48;79.86
46347;BME280;32057;47.830;19.046;2022-08-11T03:10:19;100679.75;;;14.38;79.66
46347;BME280;32057;47.830;19.046;2022-08-11T03:12:53;100690.22;;;14.38;79.46
46347;BME280;32057;47.830;19.046;2022-08-11T03:19:10;100688.38;;;14.28;80.49
46347;BME280;32057;47.830;19.046;2022-08-11T03:27:07;100693.63;;;14.31;79.71
46347;BME280;32057;47.830;19.046;2022-08-11T03:35:00;100689.75;;;13.97;82.15
46347;BME280;32057;47.830;19.046;2022-08-11T03:37:40;100695.84;;;13.95;82.16
46347;BME280;32057;47.830;19.046;2022-08-11T03:43:17;100705.97;;;13.69;83.91
46347;BME280;32057;47.830;19.046;2022-08-11T03:46:07;100705.91;;;13.65;84.95
46347;BME280;32057;47.830;19.046;2022-08-11T03:57:27;100706.31;;;13.97;82.95
46347;BME280;32057;47.830;19.046;2022-08-11T04:08:57;100705.44;;;13.97;83.62
46347;BME280;32057;47.830;19.046;2022-08-11T04:11:50;100710.66;;;13.95;84.10
46347;BME280;32057;47.830;19.046;2022-08-11T04:20:53;100705.47;;;14.00;85.39
46347;BME280;32057;47.830;19.046;2022-08-11T04:29:18;100707.22;;;13.99;83.96
46347;BME280;32057;47.830;19.046;2022-08-11T04:43:02;100706.97;;;14.52;85.79
46347;BME280;32057;47.830;19.046;2022-08-11T04:52:04;100712.31;;;14.60;85.68
46347;BME280;32057;47.830;19.046;2022-08-11T04:55:06;100706.16;;;14.57;85.03
46347;BME280;32057;47.830;19.046;2022-08-11T04:58:16;100715.94;;;14.78;84.75
46347;BME280;32057;47.830;19.046;2022-08-11T05:07:13;100714.41;;;15.01;82.85
46347;BME280;32057;47.830;19.046;2022-08-11T05:12:54;100718.94;;;15.19;82.96
46347;BME280;32057;47.830;19.046;2022-08-11T05:15:30;100720.69;;;15.23;83.97
46347;BME280;32057;47.830;19.046;2022-08-11T05:18:22;100717.22;;;15.23;83.25
46347;BME280;32057;47.830;19.046;2022-08-11T05:21:09;100716.38;;;15.31;83.86
46347;BME280;32057;47.830;19.046;2022-08-11T05:24:07;100718.16;;;15.36;81.86
46347;BME280;32057;47.830;19.046;2022-08-11T05:26:56;100714.72;;;15.40;82.44
46347;BME280;32057;47.830;19.046;2022-08-11T05:29:50;100709.50;;;15.44;83.12
46347;BME280;32057;47.830;19.046;2022-08-11T05:32:41;100717.47;;;15.60;81.42
46347;BME280;32057;47.830;19.046;2022-08-11T05:35:58;100718.47;;;15.83;80.48
46347;BME280;32057;47.830;19.046;2022-08-11T05:38:18;100717.69;;;15.97;80.71
46347;BME280;32057;47.830;19.046;2022-08-11T05:41:04;100717.75;;;16.12;81.04
46347;BME280;32057;47.830;19.046;2022-08-11T05:43:50;100727.44;;;16.24;78.26
46347;BME280;32057;47.830;19.046;2022-08-11T05:46:39;100728.34;;;16.44;79.92
46347;BME280;32057;47.830;19.046;2022-08-11T05:49:24;100723.13;;;16.61;79.50
46347;BME280;32057;47.830;19.046;2022-08-11T05:52:17;100721.47;;;16.89;78.14
46347;BME280;32057;47.830;19.046;2022-08-11T05:55:04;100722.34;;;17.22;75.94
46347;BME280;32057;47.830;19.046;2022-08-11T05:57:53;100710.00;;;17.58;75.27
46347;BME280;32057;47.830;19.046;2022-08-11T06:00:19;100703.78;;;17.82;72.08
46347;BME280;32057;47.830;19.046;2022-08-11T06:02:51;100709.88;;;18.06;71.40
46347;BME280;32057;47.830;19.046;2022-08-11T06:05:20;100708.88;;;18.30;68.77
46347;BME280;32057;47.830;19.046;2022-08-11T06:07:47;100713.19;;;18.46;65.21
46347;BME280;32057;47.830;19.046;2022-08-11T06:10:15;100712.16;;;18.69;65.62
46347;BME280;32057;47.830;19.046;2022-08-11T06:12:52;100717.38;;;18.77;65.71
46347;BME280;32057;47.830;19.046;2022-08-11T06:15:20;100713.84;;;18.84;64.02
46347;BME280;32057;47.830;19.046;2022-08-11T06:17:46;100711.97;;;19.01;63.99
46347;BME280;32057;47.830;19.046;2022-08-11T06:20:14;100713.59;;;19.13;64.11
46347;BME280;32057;47.830;19.046;2022-08-11T06:22:43;100707.25;;;19.33;64.00
46347;BME280;32057;47.830;19.046;2022-08-11T06:25:10;100706.19;;;19.50;62.63
46347;BME280;32057;47.830;19.046;2022-08-11T06:27:38;100711.19;;;19.81;63.04
46347;BME280;32057;47.830;19.046;2022-08-11T06:30:06;100697.91;;;19.89;60.08
46347;BME280;32057;47.830;19.046;2022-08-11T06:32:38;100700.47;;;19.95;59.70
46347;BME280;32057;47.830;19.046;2022-08-11T06:35:37;100697.78;;;19.98;60.48
46347;BME280;32057;47.830;19.046;2022-08-11T06:38:28;100702.94;;;20.07;59.92
46347;BME280;32057;47.830;19.046;2022-08-11T06:41:55;100702.72;;;20.23;60.85
46347;BME280;32057;47.830;19.046;2022-08-11T06:46:40;100700.78;;;20.37;57.33
46347;BME280;32057;47.830;19.046;2022-08-11T06:49:10;100695.19;;;20.59;58.49
46347;BME280;32057;47.830;19.046;2022-08-11T06:51:58;100697.53;;;20.80;58.62
46347;BME280;32057;47.830;19.046;2022-08-11T06:54:28;100696.31;;;21.00;57.30
46347;BME280;32057;47.830;19.046;2022-08-11T06:56:53;100695.13;;;21.18;56.38
46347;BME280;32057;47.830;19.046;2022-08-11T06:59:38;100691.28;;;21.37;53.86
46347;BME280;32057;47.830;19.046;2022-08-11T07:02:31;100683.50;;;21.75;53.18
46347;BME280;32057;47.830;19.046;2022-08-11T07:05:04;100683.16;;;21.92;53.46
46347;BME280;32057;47.830;19.046;2022-08-11T07:13:15;100669.63;;;22.83;48.86
46347;BME280;32057;47.830;19.046;2022-08-11T07:16:00;100673.47;;;22.70;47.56
46347;BME280;32057;47.830;19.046;2022-08-11T07:18:29;100671.44;;;22.81;46.22
46347;BME280;32057;47.830;19.046;2022-08-11T07:21:30;100672.66;;;23.04;46.53
46347;BME280;32057;47.830;19.046;2022-08-11T07:24:17;100668.66;;;23.22;42.00
46347;BME280;32057;47.830;19.046;2022-08-11T07:27:06;100677.34;;;23.29;42.98
46347;BME280;32057;47.830;19.046;2022-08-11T07:29:50;100682.56;;;23.32;43.20
46347;BME280;32057;47.830;19.046;2022-08-11T07:32:26;100669.63;;;23.19;43.68
46347;BME280;32057;47.830;19.046;2022-08-11T07:37:46;100679.47;;;23.14;42.56
46347;BME280;32057;47.830;19.046;2022-08-11T07:40:20;100676.72;;;23.19;42.93
46347;BME280;32057;47.830;19.046;2022-08-11T07:42:48;100664.97;;;23.27;44.26
46347;BME280;32057;47.830;19.046;2022-08-11T07:45:14;100665.72;;;23.33;42.53
46347;BME280;32057;47.830;19.046;2022-08-11T07:48:00;100671.88;;;23.35;43.47
46347;BME280;32057;47.830;19.046;2022-08-11T07:50:45;100657.41;;;23.45;43.15
46347;BME280;32057;47.830;19.046;2022-08-11T07:53:30;100658.78;;;23.58;43.06
46347;BME280;32057;47.830;19.046;2022-08-11T07:55:59;100666.56;;;23.97;41.50
46347;BME280;32057;47.830;19.046;2022-08-11T07:58:27;100667.56;;;24.23;41.20
46347;BME280;32057;47.830;19.046;2022-08-11T08:01:18;100661.88;;;24.35;39.27
46347;BME280;32057;47.830;19.046;2022-08-11T08:04:04;100663.44;;;24.42;40.30
46347;BME280;32057;47.830;19.046;2022-08-11T08:06:50;100661.75;;;24.38;39.04
46347;BME280;32057;47.830;19.046;2022-08-11T08:09:35;100655.91;;;24.27;38.31
46347;BME280;32057;47.830;19.046;2022-08-11T08:12:21;100656.13;;;24.21;38.66
46347;BME280;32057;47.830;19.046;2022-08-11T08:15:08;100656.56;;;24.05;39.67
46347;BME280;32057;47.830;19.046;2022-08-11T08:17:54;100658.66;;;24.24;39.69
46347;BME280;32057;47.830;19.046;2022-08-11T08:20:29;100651.13;;;24.38;39.78
46347;BME280;32057;47.830;19.046;2022-08-11T08:23:01;100644.56;;;24.50;38.13
46347;BME280;32057;47.830;19.046;2022-08-11T08:25:29;100642.81;;;24.49;37.34
46347;BME280;32057;47.830;19.046;2022-08-11T08:27:56;100651.13;;;24.38;37.03
46347;BME280;32057;47.830;19.046;2022-08-11T08:30:25;100643.88;;;24.43;37.55
46347;BME280;32057;47.830;19.046;2022-08-11T08:33:11;100645.88;;;24.65;37.70
46347;BME280;32057;47.830;19.046;2022-08-11T08:35:38;100641.38;;;24.67;37.79
46347;BME280;32057;47.830;19.046;2022-08-11T08:38:05;100649.81;;;24.80;37.77
46347;BME280;32057;47.830;19.046;2022-08-11T08:40:31;100641.38;;;24.67;38.31
46347;BME280;32057;47.830;19.046;2022-08-11T08:43:08;100637.78;;;24.68;36.44
46347;BME280;32057;47.830;19.046;2022-08-11T08:45:35;100641.47;;;24.91;38.61
46347;BME280;32057;47.830;19.046;2022-08-11T08:48:03;100623.00;;;25.11;37.45
46347;BME280;32057;47.830;19.046;2022-08-11T08:50:35;100625.16;;;25.27;36.87
46347;BME280;32057;47.830;19.046;2022-08-11T08:53:24;100631.34;;;25.52;37.05
46347;BME280;32057;47.830;19.046;2022-08-11T08:55:54;100611.78;;;25.52;36.16
46347;BME280;32057;47.830;19.046;2022-08-11T08:58:23;100616.50;;;25.69;37.23
46347;BME280;32057;47.830;19.046;2022-08-11T09:00:51;100607.00;;;26.09;36.47
46347;BME280;32057;47.830;19.046;2022-08-11T09:03:19;100614.13;;;26.08;36.02
46347;BME280;32057;47.830;19.046;2022-08-11T09:05:47;100620.38;;;26.07;35.79
46347;BME280;32057;47.830;19.046;2022-08-11T09:08:16;100603.53;;;26.07;35.28
46347;BME280;32057;47.830;19.046;2022-08-11T09:10:45;100602.28;;;26.15;36.71
46347;BME280;32057;47.830;19.046;2022-08-11T09:13:13;100602.06;;;26.42;35.74
46347;BME280;32057;47.830;19.046;2022-08-11T09:15:39;100596.03;;;26.60;35.30
46347;BME280;32057;47.830;19.046;2022-08-11T09:18:06;100606.50;;;26.86;34.74
46347;BME280;32057;47.830;19.046;2022-08-11T09:20:35;100605.53;;;26.88;32.74
46347;BME280;32057;47.830;19.046;2022-08-11T09:23:06;100612.84;;;26.62;33.51
46347;BME280;32057;47.830;19.046;2022-08-11T09:25:59;100591.78;;;26.55;34.80
46347;BME280;32057;47.830;19.046;2022-08-11T09:28:43;100582.50;;;26.21;33.67
46347;BME280;32057;47.830;19.046;2022-08-11T09:31:10;100588.38;;;25.83;35.42
46347;BME280;32057;47.830;19.046;2022-08-11T09:33:37;100581.44;;;26.25;35.54
46347;BME280;32057;47.830;19.046;2022-08-11T09:36:04;100582.34;;;26.24;35.12
46347;BME280;32057;47.830;19.046;2022-08-11T09:38:51;100580.34;;;26.51;34.08
46347;BME280;32057;47.830;19.046;2022-08-11T09:41:36;100586.91;;;26.87;34.77
46347;BME280;32057;47.830;19.046;2022-08-11T09:44:04;100570.94;;;26.85;31.19
46347;BME280;32057;47.830;19.046;2022-08-11T09:46:49;100579.34;;;26.76;32.34
46347;BME280;32057;47.830;19.046;2022-08-11T09:49:19;100582.22;;;26.92;32.81
46347;BME280;32057;47.830;19.046;2022-08-11T09:51:46;100567.88;;;26.94;31.11
46347;BME280;32057;47.830;19.046;2022-08-11T09:54:12;100568.75;;;26.95;31.89
46347;BME280;32057;47.830;19.046;2022-08-11T09:56:38;100572.22;;;26.97;29.84
46347;BME280;32057;47.830;19.046;2022-08-11T09:59:22;100572.63;;;27.08;31.60
46347;BME280;32057;47.830;19.046;2022-08-11T10:01:57;100573.41;;;27.10;30.78
46347;BME280;32057;47.830;19.046;2022-08-11T10:07:42;100559.25;;;27.08;31.08
46347;BME280;32057;47.830;19.046;2022-08-11T10:10:16;100550.97;;;27.14;31.46
46347;BME280;32057;47.830;19.046;2022-08-11T10:12:48;100560.16;;;27.48;30.91
46347;BME280;32057;47.830;19.046;2022-08-11T10:15:18;100561.50;;;27.76;30.03
46347;BME280;32057;47.830;19.046;2022-08-11T10:18:05;100559.63;;;27.40;28.99
46347;BME280;32057;47.830;19.046;2022-08-11T10:20:51;100545.69;;;27.52;30.54
46347;BME280;32057;47.830;19.046;2022-08-11T10:23:20;100553.13;;;27.46;31.00
46347;BME280;32057;47.830;19.046;2022-08-11T10:26:05;100543.59;;;27.40;30.91
46347;BME280;32057;47.830;19.046;2022-08-11T10:28:51;100549.66;;;27.44;31.45
46347;BME280;32057;47.830;19.046;2022-08-11T10:31:19;100545.59;;;27.35;31.80
46347;BME280;32057;47.830;19.046;2022-08-11T10:34:04;100541.06;;;27.16;31.56
46347;BME280;32057;47.830;19.046;2022-08-11T10:36:39;100538.00;;;27.05;31.34
46347;BME280;32057;47.830;19.046;2022-08-11T10:39:12;100532.66;;;27.05;30.64
46347;BME280;32057;47.830;19.046;2022-08-11T10:41:43;100519.47;;;26.81;32.54
46347;BME280;32057;47.830;19.046;2022-08-11T10:44:28;100526.47;;;26.63;32.35
46347;BME280;32057;47.830;19.046;2022-08-11T10:46:58;100517.84;;;26.57;32.80
46347;BME280;32057;47.830;19.046;2022-08-11T10:49:43;100522.66;;;26.49;32.58
46347;BME280;32057;47.830;19.046;2022-08-11T10:52:09;100523.47;;;26.08;32.57
46347;BME280;32057;47.830;19.046;2022-08-11T10:54:53;100520.69;;;25.88;32.32
46347;BME280;32057;47.830;19.046;2022-08-11T10:57:37;100512.63;;;25.89;33.19
46347;BME280;32057;47.830;19.046;2022-08-11T11:00:21;100531.13;;;25.94;33.83
46347;BME280;32057;47.830;19.046;2022-08-11T11:02:48;100524.19;;;26.12;32.64
46347;BME280;32057;47.830;19.046;2022-08-11T11:05:27;100523.06;;;26.17;32.25
46347;BME280;32057;47.830;19.046;2022-08-11T11:08:15;100526.31;;;25.80;33.12
46347;BME280;32057;47.830;19.046;2022-08-11T11:11:04;100519.53;;;25.95;32.83
46347;BME280;32057;47.830;19.046;2022-08-11T11:13:32;100520.28;;;26.20;32.30
46347;BME280;32057;47.830;19.046;2022-08-11T11:16:17;100509.97;;;26.54;31.90
46347;BME280;32057;47.830;19.046;2022-08-11T11:19:04;100502.34;;;26.67;31.40
46347;BME280;32057;47.830;19.046;2022-08-11T11:21:34;100503.13;;;26.69;31.29
46347;BME280;32057;47.830;19.046;2022-08-11T11:26:47;100492.50;;;26.88;30.80
46347;BME280;32057;47.830;19.046;2022-08-11T11:32:52;100488.75;;;26.92;31.61
46347;BME280;32057;47.830;19.046;2022-08-11T11:37:54;100483.47;;;27.30;31.04
46347;BME280;32057;47.830;19.046;2022-08-11T11:40:22;100474.38;;;27.34;31.09
46347;BME280;32057;47.830;19.046;2022-08-11T11:42:50;100482.75;;;27.45;30.01
46347;BME280;32057;47.830;19.046;2022-08-11T11:45:19;100480.44;;;27.37;31.34
46347;BME280;32057;47.830;19.046;2022-08-11T11:47:47;100477.59;;;27.42;31.01
46347;BME280;32057;47.830;19.046;2022-08-11T11:50:21;100475.03;;;27.39;31.46
46347;BME280;32057;47.830;19.046;2022-08-11T11:52:48;100476.06;;;27.36;31.23
46347;BME280;32057;47.830;19.046;2022-08-11T11:55:16;100472.31;;;27.01;31.91
46347;BME280;32057;47.830;19.046;2022-08-11T11:57:43;100467.22;;;26.76;32.34
46347;BME280;32057;47.830;19.046;2022-08-11T12:00:28;100465.09;;;26.84;30.85
46347;BME280;32057;47.830;19.046;2022-08-11T12:03:12;100459.28;;;26.74;31.57
46347;BME280;32057;47.830;19.046;2022-08-11T12:05:41;100456.53;;;26.55;32.64
46347;BME280;32057;47.830;19.046;2022-08-11T12:08:08;100458.16;;;26.59;31.64
46347;BME280;32057;47.830;19.046;2022-08-11T12:10:48;100456.97;;;26.67;33.33
46347;BME280;32057;47.830;19.046;2022-08-11T12:13:16;100455.38;;;26.81;31.76
46347;BME280;32057;47.830;19.046;2022-08-11T12:16:01;100451.66;;;26.86;31.21
46347;BME280;32057;47.830;19.046;2022-08-11T12:18:34;100460.72;;;27.02;31.47
46347;BME280;32057;47.830;19.046;2022-08-11T12:21:02;100444.91;;;27.16;30.85
46347;BME280;32057;47.830;19.046;2022-08-11T12:23:28;100448.28;;;27.01;30.70
46347;BME280;32057;47.830;19.046;2022-08-11T12:26:14;100454.81;;;26.94;31.02
46347;BME280;32057;47.830;19.046;2022-08-11T12:28:59;100446.06;;;27.11;31.91
46347;BME280;32057;47.830;19.046;2022-08-11T12:31:28;100436.97;;;27.15;31.45
46347;BME280;32057;47.830;19.046;2022-08-11T12:34:08;100433.78;;;27.26;31.86
46347;BME280;32057;47.830;19.046;2022-08-11T12:36:45;100439.94;;;27.28;30.42
46347;BME280;32057;47.830;19.046;2022-08-11T12:39:18;100443.31;;;27.12;31.02
46347;BME280;32057;47.830;19.046;2022-08-11T12:41:45;100441.63;;;27.10;30.78
46347;BME280;32057;47.830;19.046;2022-08-11T12:44:30;100439.63;;;27.15;31.56
46347;BME280;32057;47.830;19.046;2022-08-11T12:47:18;100431.44;;;27.18;31.36
46347;BME280;32057;47.830;19.046;2022-08-11T12:49:47;100424.84;;;27.27;30.57
46347;BME280;32057;47.830;19.046;2022-08-11T12:52:44;100439.63;;;27.34;30.79
46347;BME280;32057;47.830;19.046;2022-08-11T12:55:16;100435.53;;;27.27;32.09
46347;BME280;32057;47.830;19.046;2022-08-11T12:58:06;100425.25;;;26.98;31.01
46347;BME280;32057;47.830;19.046;2022-08-11T13:00:43;100418.00;;;26.81;31.41
46347;BME280;32057;47.830;19.046;2022-08-11T13:03:28;100419.75;;;26.82;32.19
46347;BME280;32057;47.830;19.046;2022-08-11T13:06:12;100426.34;;;27.13;32.73
46347;BME280;32057;47.830;19.046;2022-08-11T13:08:39;100425.84;;;27.05;30.89
46347;BME280;32057;47.830;19.046;2022-08-11T13:11:05;100423.44;;;26.99;30.75
46347;BME280;32057;47.830;19.046;2022-08-11T13:13:51;100419.56;;;27.06;29.63
46347;BME280;32057;47.830;19.046;2022-08-11T13:16:22;100418.09;;;26.99;29.55
46347;BME280;32057;47.830;19.046;2022-08-11T13:18:48;100408.63;;;26.92;30.80
46347;BME280;32057;47.830;19.046;2022-08-11T13:21:15;100413.13;;;26.91;30.08
46347;BME280;32057;47.830;19.046;2022-08-11T13:23:41;100409.72;;;26.88;29.78
46347;BME280;32057;47.830;19.046;2022-08-11T13:26:07;100403.47;;;26.89;30.37
46347;BME280;32057;47.830;19.046;2022-08-11T13:28:37;100402.28;;;26.75;30.92
46347;BME280;32057;47.830;19.046;2022-08-11T13:31:04;100406.53;;;26.79;30.43
46347;BME280;32057;47.830;19.046;2022-08-11T13:33:54;100399.13;;;26.86;31.08
46347;BME280;32057;47.830;19.046;2022-08-11T13:36:21;100402.31;;;26.94;32.87
46347;BME280;32057;47.830;19.046;2022-08-11T13:38:52;100400.66;;;27.11;31.00
46347;BME280;32057;47.830;19.046;2022-08-11T13:41:19;100399.00;;;27.08;28.98
46347;BME280;32057;47.830;19.046;2022-08-11T13:44:09;100403.16;;;26.95;30.48
46347;BME280;32057;47.830;19.046;2022-08-11T13:46:36;100407.31;;;26.62;30.22
46347;BME280;32057;47.830;19.046;2022-08-11T13:49:03;100394.56;;;26.49;30.40
46347;BME280;32057;47.830;19.046;2022-08-11T13:51:30;100397.22;;;26.49;30.98
46347;BME280;32057;47.830;19.046;2022-08-11T13:54:16;100400.03;;;26.46;30.48
46347;BME280;32057;47.830;19.046;2022-08-11T13:56:46;100393.50;;;26.32;30.72
46347;BME280;32057;47.830;19.046;2022-08-11T13:59:14;100382.97;;;26.29;30.80
46347;BME280;32057;47.830;19.046;2022-08-11T14:01:48;100381.84;;;26.35;31.82
46347;BME280;32057;47.830;19.046;2022-08-11T14:04:29;100384.56;;;26.33;30.83
46347;BME280;32057;47.830;19.046;2022-08-11T14:06:59;100381.34;;;26.46;31.90
46347;BME280;32057;47.830;19.046;2022-08-11T14:09:29;100377.63;;;26.29;32.02
46347;BME280;32057;47.830;19.046;2022-08-11T14:12:00;100388.44;;;26.47;31.69
46347;BME280;32057;47.830;19.046;2022-08-11T14:14:50;100385.47;;;26.53;31.18
46347;BME280;32057;47.830;19.046;2022-08-11T14:17:18;100370.47;;;26.30;32.10
46347;BME280;32057;47.830;19.046;2022-08-11T14:19:50;100362.81;;;26.22;31.87
46347;BME280;32057;47.830;19.046;2022-08-11T14:22:16;100367.81;;;26.30;32.40
46347;BME280;32057;47.830;19.046;2022-08-11T14:24:44;100371.22;;;26.33;31.91
46347;BME280;32057;47.830;19.046;2022-08-11T14:27:16;100362.34;;;26.33;33.28
46347;BME280;32057;47.830;19.046;2022-08-11T14:29:43;100362.94;;;26.39;32.37
46347;BME280;32057;47.830;19.046;2022-08-11T14:32:11;100362.81;;;26.42;32.82
46347;BME280;32057;47.830;19.046;2022-08-11T14:34:42;100357.88;;;26.33;32.66
46347;BME280;32057;47.830;19.046;2022-08-11T14:37:11;100365.75;;;26.36;31.96
46347;BME280;32057;47.830;19.046;2022-08-11T14:39:42;100362.75;;;26.23;33.08
46347;BME280;32057;47.830;19.046;2022-08-11T14:42:09;100356.50;;;26.25;33.52
46347;BME280;32057;47.830;19.046;2022-08-11T14:45:05;100361.22;;;26.18;33.24
46347;BME280;32057;47.830;19.046;2022-08-11T14:47:53;100361.78;;;26.26;34.19
46347;BME280;32057;47.830;19.046;2022-08-11T14:50:22;100354.69;;;26.25;32.98
46347;BME280;32057;47.830;19.046;2022-08-11T14:52:55;100358.72;;;26.15;32.50
46347;BME280;32057;47.830;19.046;2022-08-11T14:55:26;100348.50;;;26.25;33.26
46347;BME280;32057;47.830;19.046;2022-08-11T14:58:15;100346.91;;;26.20;32.81
46347;BME280;32057;47.830;19.046;2022-08-11T15:00:41;100347.03;;;26.17;32.39
46347;BME280;32057;47.830;19.046;2022-08-11T15:03:09;100348.09;;;26.13;34.45
46347;BME280;32057;47.830;19.046;2022-08-11T15:05:58;100352.50;;;26.14;33.24
46347;BME280;32057;47.830;19.046;2022-08-11T15:08:34;100348.16;;;26.12;33.69
46347;BME280;32057;47.830;19.046;2022-08-11T15:11:20;100349.22;;;26.08;33.36
46347;BME280;32057;47.830;19.046;2022-08-11T15:14:06;100351.78;;;26.11;34.02
46347;BME280;32057;47.830;19.046;2022-08-11T15:16:34;100350.28;;;26.03;33.38
46347;BME280;32057;47.830;19.046;2022-08-11T15:19:19;100350.50;;;25.99;34.05
46347;BME280;32057;47.830;19.046;2022-08-11T15:21:46;100350.63;;;25.96;33.39
46347;BME280;32057;47.830;19.046;2022-08-11T15:24:31;100352.59;;;25.92;34.17
46347;BME280;32057;47.830;19.046;2022-08-11T15:26:59;100349.13;;;25.90;34.50
46347;BME280;32057;47.830;19.046;2022-08-11T15:29:47;100353.53;;;25.90;33.42
46347;BME280;32057;47.830;19.046;2022-08-11T15:32:36;100351.78;;;25.90;33.45
46347;BME280;32057;47.830;19.046;2022-08-11T15:35:22;100347.34;;;25.89;33.85
46347;BME280;32057;47.830;19.046;2022-08-11T15:38:10;100348.72;;;25.77;34.46
46347;BME280;32057;47.830;19.046;2022-08-11T15:40:39;100344.03;;;25.62;34.30
46347;BME280;32057;47.830;19.046;2022-08-11T15:43:42;100352.50;;;25.72;34.03
46347;BME280;32057;47.830;19.046;2022-08-11T15:46:30;100356.28;;;25.66;34.84
46347;BME280;32057;47.830;19.046;2022-08-11T15:49:21;100347.75;;;25.58;34.88
46347;BME280;32057;47.830;19.046;2022-08-11T15:52:08;100349.13;;;25.46;35.04
46347;BME280;32057;47.830;19.046;2022-08-11T15:54:39;100348.25;;;25.46;35.11
46347;BME280;32057;47.830;19.046;2022-08-11T15:57:06;100344.19;;;25.37;35.52
46347;BME280;32057;47.830;19.046;2022-08-11T15:59:34;100344.19;;;25.37;35.04
46347;BME280;32057;47.830;19.046;2022-08-11T16:02:21;100342.75;;;25.28;35.91
46347;BME280;32057;47.830;19.046;2022-08-11T16:04:50;100342.69;;;25.30;35.29
46347;BME280;32057;47.830;19.046;2022-08-11T16:07:19;100339.97;;;25.31;35.24
46347;BME280;32057;47.830;19.046;2022-08-11T16:09:54;100340.28;;;25.23;36.48
46347;BME280;32057;47.830;19.046;2022-08-11T16:12:24;100341.44;;;25.16;37.44
46347;BME280;32057;47.830;19.046;2022-08-11T16:14:55;100341.59;;;25.12;35.66
46347;BME280;32057;47.830;19.046;2022-08-11T16:17:44;100347.38;;;25.01;36.26
46347;BME280;32057;47.830;19.046;2022-08-11T16:20:15;100371.94;;;25.08;37.09
46347;BME280;32057;47.830;19.046;2022-08-11T16:22:42;100370.34;;;24.80;37.04
46347;BME280;32057;47.830;19.046;2022-08-11T16:25:18;100381.16;;;24.75;37.50
46347;BME280;32057;47.830;19.046;2022-08-11T16:27:50;100389.81;;;24.32;38.50
46347;BME280;32057;47.830;19.046;2022-08-11T16:30:16;100392.31;;;24.11;39.12
46347;BME280;32057;47.830;19.046;2022-08-11T16:32:45;100406.53;;;23.83;39.96
46347;BME280;32057;47.830;19.046;2022-08-11T16:35:16;100403.28;;;23.74;40.39
46347;BME280;32057;47.830;19.046;2022-08-11T16:38:03;100403.66;;;23.63;40.41